LiveATC.Net - Listen to live air traffic control over the Internet!


ICAO: KHUT  IATA: HUT   Airport: Hutchinson Municipal Airport
City: Hutchinson   State/Province: Kansas
Country: United States   Continent: North America
KHUT METAR Weather: KHUT 241052Z AUTO 34007KT 10SM FEW110 M01/M04 A3003 RMK AO2 SLP171 T10111039
KHUT Flight Activity (FlightAware)
KHUT Airport Info   (AirNav) (iFlightPlanner)
KHUT VFR Sectional Chart   (iFlightPlanner) 
KHUT IFR Low Chart   (iFlightPlanner) 

KHUT Ground/Twr
Feed Status: UP   Listeners: 0
Listen in your browser - HTML5 player (in browser, HTML5)
Click here to listen with your own player (launches your MP3 player)
KHUT Ground/Twr Audio Archives
FacilityFrequency
Emergency/Guard121.500
Hutchinson Ground121.900
Hutchinson Tower118.500

NOTICE

Unauthorized use prohibited. See LiveATC.net Terms of Service


Find LiveATC Audio Streams


Airport/ARTCC Code

Frequency Search
(e.g., 124.400, 128.75)
Site-wide search
 


Browse LiveATC Feeds
Top 50 LiveATC Feeds
LiveATC Feed Map
Bad Weather Areas

LiveATC FAQ
Offer LiveATC feed
Contact LiveATC.net
Press Inquiries

LiveATC on iPhone
LiveATC on Android

Windows Phone
Windows 8/10

LiveATC Mobile
(Mobile browser)

ATC Audio Archives
Interesting Recordings

LiveATC Forums


Home Page
About LiveATC.net
Make a Donation
Terms of Use
Privacy Policy

Canadian Air Freqs

AIRMETs/SIGMETs

FAA Airport Status
Nat'l Airspace Status
Arrival Demand Charts


Server Software By:
Icecast.org
Liquidsoap